sensor_id;sensor_type;location;lat;lon;timestamp;pressure;altitude;pressure_sealevel;temperature;humidity
30463;BME280;17256;43.618;25.336;2023-05-12T00:50:06;101149.75;;;10.39;100.00
30463;BME280;17256;43.618;25.336;2023-05-12T00:57:57;100839.31;;;8.46;100.00
30463;BME280;17256;43.618;25.336;2023-05-12T01:00:24;100999.00;;;9.32;100.00
30463;BME280;17256;43.618;25.336;2023-05-12T01:02:50;100931.09;;;8.88;100.00
30463;BME280;17256;43.618;25.336;2023-05-12T01:05:16;101019.41;;;9.29;100.00
30463;BME280;17256;43.618;25.336;2023-05-12T01:07:43;100955.72;;;8.96;100.00
30463;BME280;17256;43.618;25.336;2023-05-12T01:10:20;100880.53;;;8.45;100.00
30463;BME280;17256;43.618;25.336;2023-05-12T01:12:46;100947.03;;;8.84;100.00
30463;BME280;17256;43.618;25.336;2023-05-12T01:15:13;100950.09;;;8.89;100.00
30463;BME280;17256;43.618;25.336;2023-05-12T01:17:52;100761.78;;;7.84;100.00
30463;BME280;17256;43.618;25.336;2023-05-12T01:51:53;100684.88;;;6.92;100.00
30463;BME280;17256;43.618;25.336;2023-05-12T01:54:25;100874.16;;;8.05;100.00
30463;BME280;17256;43.618;25.336;2023-05-12T02:02:46;101087.06;;;9.29;100.00
30463;BME280;17256;43.618;25.336;2023-05-12T02:06:49;100892.81;;;8.01;100.00
30463;BME280;17256;43.618;25.336;2023-05-12T02:43:53;100979.94;;;8.45;100.00
30463;BME280;17256;43.618;25.336;2023-05-12T02:46:19;100843.34;;;7.64;100.00
30463;BME280;17256;43.618;25.336;2023-05-12T02:48:49;101001.06;;;8.59;100.00
30463;BME280;17256;43.618;25.336;2023-05-12T02:51:15;100823.88;;;7.59;100.00
30463;BME280;17256;43.618;25.336;2023-05-12T02:53:41;101010.63;;;8.63;100.00
30463;BME280;17256;43.618;25.336;2023-05-12T02:56:06;100874.03;;;7.90;100.00
30463;BME280;17256;43.618;25.336;2023-05-12T02:58:35;100847.44;;;7.76;100.00
30463;BME280;17256;43.618;25.336;2023-05-12T03:01:11;100810.41;;;7.41;100.00
30463;BME280;17256;43.618;25.336;2023-05-12T03:03:38;100860.78;;;7.71;100.00
30463;BME280;17256;43.618;25.336;2023-05-12T03:06:04;100921.56;;;7.97;100.00
30463;BME280;17256;43.618;25.336;2023-05-12T03:08:30;100821.53;;;7.39;100.00
30463;BME280;17256;43.618;25.336;2023-05-12T03:10:56;100860.41;;;7.66;100.00
30463;BME280;17256;43.618;25.336;2023-05-12T03:13:22;100906.66;;;7.92;100.00
30463;BME280;17256;43.618;25.336;2023-05-12T03:15:48;100911.47;;;7.98;100.00
30463;BME280;17256;43.618;25.336;2023-05-12T03:21:55;101124.09;;;9.16;100.00
30463;BME280;17256;43.618;25.336;2023-05-12T03:24:21;100924.75;;;8.09;100.00
30463;BME280;17256;43.618;25.336;2023-05-12T03:26:46;100886.50;;;7.93;100.00
30463;BME280;17256;43.618;25.336;2023-05-12T03:29:13;101011.06;;;8.44;100.00
30463;BME280;17256;43.618;25.336;2023-05-12T03:31:39;100848.47;;;7.75;100.00
30463;BME280;17256;43.618;25.336;2023-05-12T03:34:05;101207.84;;;9.66;100.00
30463;BME280;17256;43.618;25.336;2023-05-12T03:36:30;100922.03;;;8.01;100.00
30463;BME280;17256;43.618;25.336;2023-05-12T03:38:56;100997.53;;;8.51;100.00
30463;BME280;17256;43.618;25.336;2023-05-12T03:41:22;100909.91;;;8.03;100.00
30463;BME280;17256;43.618;25.336;2023-05-12T03:43:48;100965.16;;;8.54;100.00
30463;BME280;17256;43.618;25.336;2023-05-12T03:46:14;100713.72;;;6.87;100.00
30463;BME280;17256;43.618;25.336;2023-05-12T03:48:39;100942.66;;;8.28;100.00
30463;BME280;17256;43.618;25.336;2023-05-12T03:51:06;100740.34;;;7.01;100.00
30463;BME280;17256;43.618;25.336;2023-05-12T03:53:31;100895.06;;;7.98;100.00
30463;BME280;17256;43.618;25.336;2023-05-12T03:56:02;101157.47;;;9.67;100.00
30463;BME280;17256;43.618;25.336;2023-05-12T03:58:31;100800.69;;;7.47;100.00
30463;BME280;17256;43.618;25.336;2023-05-12T04:00:57;100794.22;;;7.48;100.00
30463;BME280;17256;43.618;25.336;2023-05-12T04:03:24;100791.81;;;7.45;100.00
30463;BME280;17256;43.618;25.336;2023-05-12T04:05:49;100765.03;;;7.32;100.00
30463;BME280;17256;43.618;25.336;2023-05-12T04:08:15;101027.31;;;8.93;100.00
30463;BME280;17256;43.618;25.336;2023-05-12T04:10:41;101142.56;;;9.62;100.00
30463;BME280;17256;43.618;25.336;2023-05-12T04:13:07;101087.25;;;9.27;100.00
30463;BME280;17256;43.618;25.336;2023-05-12T04:15:36;100927.94;;;8.37;100.00
30463;BME280;17256;43.618;25.336;2023-05-12T04:18:02;100971.78;;;8.68;100.00
30463;BME280;17256;43.618;25.336;2023-05-12T04:20:29;101015.28;;;9.02;100.00
30463;BME280;17256;43.618;25.336;2023-05-12T04:22:56;101046.44;;;9.01;100.00
30463;BME280;17256;43.618;25.336;2023-05-12T04:25:21;100940.16;;;8.57;100.00
30463;BME280;17256;43.618;25.336;2023-05-12T04:27:48;101035.03;;;9.20;100.00
30463;BME280;17256;43.618;25.336;2023-05-12T04:30:19;100962.50;;;8.77;100.00
30463;BME280;17256;43.618;25.336;2023-05-12T04:32:48;101158.56;;;9.81;100.00
30463;BME280;17256;43.618;25.336;2023-05-12T04:35:42;100839.69;;;7.88;100.00
30463;BME280;17256;43.618;25.336;2023-05-12T04:38:32;100861.84;;;8.09;100.00
30463;BME280;17256;43.618;25.336;2023-05-12T04:41:03;100836.78;;;7.89;100.00
30463;BME280;17256;43.618;25.336;2023-05-12T04:43:29;100918.38;;;8.17;100.00
30463;BME280;17256;43.618;25.336;2023-05-12T04:45:55;100997.97;;;8.71;100.00
30463;BME280;17256;43.618;25.336;2023-05-12T04:48:53;100856.59;;;7.99;100.00
30463;BME280;17256;43.618;25.336;2023-05-12T04:53:01;101252.56;;;10.37;100.00
30463;BME280;17256;43.618;25.336;2023-05-12T04:55:26;100945.19;;;8.46;100.00
30463;BME280;17256;43.618;25.336;2023-05-12T04:57:52;100951.25;;;8.64;100.00
30463;BME280;17256;43.618;25.336;2023-05-12T05:00:18;100990.59;;;8.71;100.00
30463;BME280;17256;43.618;25.336;2023-05-12T05:02:45;100981.50;;;8.79;100.00
30463;BME280;17256;43.618;25.336;2023-05-12T05:05:12;100981.50;;;8.79;100.00
30463;BME280;17256;43.618;25.336;2023-05-12T05:07:38;100884.19;;;8.21;100.00
30463;BME280;17256;43.618;25.336;2023-05-12T05:10:04;101098.56;;;9.55;100.00
30463;BME280;17256;43.618;25.336;2023-05-12T05:12:31;101109.34;;;9.56;100.00
30463;BME280;17256;43.618;25.336;2023-05-12T05:14:57;100877.88;;;8.12;100.00
30463;BME280;17256;43.618;25.336;2023-05-12T05:17:23;100969.44;;;8.88;100.00
30463;BME280;17256;43.618;25.336;2023-05-12T05:19:49;101119.19;;;9.74;100.00
30463;BME280;17256;43.618;25.336;2023-05-12T05:22:15;101235.03;;;10.46;100.00
30463;BME280;17256;43.618;25.336;2023-05-12T05:24:41;101118.16;;;9.75;100.00
30463;BME280;17256;43.618;25.336;2023-05-12T05:37:45;101126.31;;;9.83;100.00
30463;BME280;17256;43.618;25.336;2023-05-12T05:40:13;101326.53;;;10.92;100.00
30463;BME280;17256;43.618;25.336;2023-05-12T05:42:41;100990.53;;;9.18;100.00
30463;BME280;17256;43.618;25.336;2023-05-12T05:45:08;100889.25;;;8.48;100.00
30463;BME280;17256;43.618;25.336;2023-05-12T05:47:35;101035.34;;;9.25;100.00
30463;BME280;17256;43.618;25.336;2023-05-12T05:50:06;101160.31;;;10.05;100.00
30463;BME280;17256;43.618;25.336;2023-05-12T05:52:35;101042.19;;;9.52;100.00
30463;BME280;17256;43.618;25.336;2023-05-12T05:55:01;101068.97;;;9.73;100.00
30463;BME280;17256;43.618;25.336;2023-05-12T06:01:50;101297.03;;;11.24;100.00
30463;BME280;17256;43.618;25.336;2023-05-12T06:16:05;101302.47;;;11.76;100.00
30463;BME280;17256;43.618;25.336;2023-05-12T06:18:32;101117.81;;;10.76;100.00
30463;BME280;17256;43.618;25.336;2023-05-12T06:21:03;101105.03;;;10.83;100.00
30463;BME280;17256;43.618;25.336;2023-05-12T06:43:41;101019.38;;;10.94;100.00
30463;BME280;17256;43.618;25.336;2023-05-12T06:46:08;101170.97;;;11.71;100.00
30463;BME280;17256;43.618;25.336;2023-05-12T06:48:33;101093.28;;;11.19;100.00
30463;BME280;17256;43.618;25.336;2023-05-12T06:50:59;101056.91;;;11.17;100.00
30463;BME280;17256;43.618;25.336;2023-05-12T06:53:27;101033.94;;;11.09;100.00
30463;BME280;17256;43.618;25.336;2023-05-12T06:55:53;101085.25;;;11.38;100.00
30463;BME280;17256;43.618;25.336;2023-05-12T06:58:19;101089.72;;;11.39;100.00
30463;BME280;17256;43.618;25.336;2023-05-12T07:00:46;101065.50;;;11.14;100.00
30463;BME280;17256;43.618;25.336;2023-05-12T07:03:12;101121.84;;;11.54;100.00
30463;BME280;17256;43.618;25.336;2023-05-12T07:05:38;101118.78;;;11.63;100.00
30463;BME280;17256;43.618;25.336;2023-05-12T07:08:04;101061.88;;;11.28;100.00
30463;BME280;17256;43.618;25.336;2023-05-12T07:10:30;101060.84;;;11.29;100.00
30463;BME280;17256;43.618;25.336;2023-05-12T07:12:57;101075.88;;;11.48;100.00
30463;BME280;17256;43.618;25.336;2023-05-12T07:15:26;101076.88;;;11.61;100.00
30463;BME280;17256;43.618;25.336;2023-05-12T07:17:56;100997.47;;;11.16;100.00
30463;BME280;17256;43.618;25.336;2023-05-12T07:20:22;101010.16;;;11.38;100.00
30463;BME280;17256;43.618;25.336;2023-05-12T07:22:51;101165.03;;;12.47;100.00
30463;BME280;17256;43.618;25.336;2023-05-12T07:25:28;101059.03;;;11.93;100.00
30463;BME280;17256;43.618;25.336;2023-05-12T07:27:57;101060.00;;;11.86;100.00
30463;BME280;17256;43.618;25.336;2023-05-12T07:30:51;101137.84;;;12.65;100.00
30463;BME280;17256;43.618;25.336;2023-05-12T07:33:40;101062.22;;;12.18;100.00
30463;BME280;17256;43.618;25.336;2023-05-12T07:36:47;101325.91;;;13.94;100.00
30463;BME280;17256;43.618;25.336;2023-05-12T07:39:14;101077.81;;;12.32;100.00
30463;BME280;17256;43.618;25.336;2023-05-12T07:41:44;100912.16;;;11.52;100.00
30463;BME280;17256;43.618;25.336;2023-05-12T07:44:12;101058.72;;;12.31;100.00
30463;BME280;17256;43.618;25.336;2023-05-12T07:46:38;100883.56;;;11.25;100.00
30463;BME280;17256;43.618;25.336;2023-05-12T07:49:04;101300.75;;;13.82;100.00
30463;BME280;17256;43.618;25.336;2023-05-12T07:51:31;101332.19;;;14.15;100.00
30463;BME280;17256;43.618;25.336;2023-05-12T07:53:57;101020.50;;;12.15;100.00
30463;BME280;17256;43.618;25.336;2023-05-12T07:56:23;100909.06;;;11.61;100.00
30463;BME280;17256;43.618;25.336;2023-05-12T07:58:49;101064.41;;;12.51;100.00
30463;BME280;17256;43.618;25.336;2023-05-12T08:01:15;101068.47;;;12.61;100.00
30463;BME280;17256;43.618;25.336;2023-05-12T08:03:41;100955.44;;;11.86;100.00
30463;BME280;17256;43.618;25.336;2023-05-12T08:06:07;100953.19;;;11.96;100.00
30463;BME280;17256;43.618;25.336;2023-05-12T08:08:37;100952.09;;;11.90;100.00
30463;BME280;17256;43.618;25.336;2023-05-12T08:11:45;101334.69;;;14.10;100.00
30463;BME280;17256;43.618;25.336;2023-05-12T08:14:15;101125.59;;;13.02;100.00
30463;BME280;17256;43.618;25.336;2023-05-12T08:16:45;101123.03;;;13.01;100.00
30463;BME280;17256;43.618;25.336;2023-05-12T08:19:14;101078.28;;;12.64;100.00
30463;BME280;17256;43.618;25.336;2023-05-12T08:40:56;100967.56;;;12.19;95.47
30463;BME280;17256;43.618;25.336;2023-05-12T08:43:43;101009.94;;;12.53;93.49
30463;BME280;17256;43.618;25.336;2023-05-12T08:46:11;100933.56;;;12.06;92.05
30463;BME280;17256;43.618;25.336;2023-05-12T08:48:38;101051.56;;;12.99;92.88
30463;BME280;17256;43.618;25.336;2023-05-12T08:51:08;101026.53;;;13.01;92.26
30463;BME280;17256;43.618;25.336;2023-05-12T08:53:39;101006.47;;;12.79;89.71
30463;BME280;17256;43.618;25.336;2023-05-12T08:56:07;100885.00;;;12.26;89.48
30463;BME280;17256;43.618;25.336;2023-05-12T08:58:34;101291.41;;;14.92;86.69
30463;BME280;17256;43.618;25.336;2023-05-12T09:01:02;101024.84;;;13.54;84.97
30463;BME280;17256;43.618;25.336;2023-05-12T09:03:35;101048.72;;;13.88;84.43
30463;BME280;17256;43.618;25.336;2023-05-12T09:06:17;101171.59;;;14.85;82.07
30463;BME280;17256;43.618;25.336;2023-05-12T09:08:48;101180.09;;;15.23;79.90
30463;BME280;17256;43.618;25.336;2023-05-12T09:11:15;100962.03;;;14.02;77.04
30463;BME280;17256;43.618;25.336;2023-05-12T09:14:13;101259.63;;;15.74;78.49
30463;BME280;17256;43.618;25.336;2023-05-12T09:16:49;101181.97;;;15.42;77.60
30463;BME280;17256;43.618;25.336;2023-05-12T09:19:20;101100.09;;;15.08;76.31
30463;BME280;17256;43.618;25.336;2023-05-12T09:21:48;101150.50;;;15.23;76.46
30463;BME280;17256;43.618;25.336;2023-05-12T09:24:14;101335.28;;;16.39;76.71
30463;BME280;17256;43.618;25.336;2023-05-12T09:26:48;101154.03;;;15.50;72.96
30463;BME280;17256;43.618;25.336;2023-05-12T09:29:14;101179.41;;;15.98;70.25
30463;BME280;17256;43.618;25.336;2023-05-12T09:31:53;101086.81;;;15.81;68.52
30463;BME280;17256;43.618;25.336;2023-05-12T09:34:34;101199.09;;;17.10;68.16
30463;BME280;17256;43.618;25.336;2023-05-12T09:37:04;101084.53;;;16.84;66.54
30463;BME280;17256;43.618;25.336;2023-05-12T09:39:30;101146.78;;;17.50;63.84
30463;BME280;17256;43.618;25.336;2023-05-12T09:41:56;101156.59;;;17.52;60.91
30463;BME280;17256;43.618;25.336;2023-05-12T09:44:23;101021.06;;;16.51;61.54
30463;BME280;17256;43.618;25.336;2023-05-12T09:46:50;101232.25;;;17.91;62.15
30463;BME280;17256;43.618;25.336;2023-05-12T09:49:25;101325.91;;;18.57;62.04
30463;BME280;17256;43.618;25.336;2023-05-12T09:51:58;100967.72;;;15.88;59.14
30463;BME280;17256;43.618;25.336;2023-05-12T09:54:31;101019.03;;;16.40;59.94
30463;BME280;17256;43.618;25.336;2023-05-12T09:57:02;100991.47;;;16.45;59.73
30463;BME280;17256;43.618;25.336;2023-05-12T09:59:34;101198.91;;;17.91;59.30
30463;BME280;17256;43.618;25.336;2023-05-12T10:02:03;101182.00;;;17.74;58.53
30463;BME280;17256;43.618;25.336;2023-05-12T10:04:42;101153.44;;;17.86;57.62
30463;BME280;17256;43.618;25.336;2023-05-12T10:07:11;101265.16;;;18.24;56.82
30463;BME280;17256;43.618;25.336;2023-05-12T10:09:39;101316.03;;;18.61;56.94
30463;BME280;17256;43.618;25.336;2023-05-12T10:12:07;101100.53;;;17.44;56.15
30463;BME280;17256;43.618;25.336;2023-05-12T10:14:34;101065.19;;;17.33;57.11
30463;BME280;17256;43.618;25.336;2023-05-12T10:17:00;101232.56;;;18.31;57.11
30463;BME280;17256;43.618;25.336;2023-05-12T10:19:30;101146.66;;;17.63;57.09
30463;BME280;17256;43.618;25.336;2023-05-12T10:26:18;101211.81;;;18.45;56.39
30463;BME280;17256;43.618;25.336;2023-05-12T10:32:08;100930.78;;;16.55;56.03
30463;BME280;17256;43.618;25.336;2023-05-12T10:38:19;101331.59;;;18.81;54.44
30463;BME280;17256;43.618;25.336;2023-05-12T10:41:41;101086.97;;;17.36;53.37
30463;BME280;17256;43.618;25.336;2023-05-12T10:44:08;101034.75;;;17.08;53.95
30463;BME280;17256;43.618;25.336;2023-05-12T10:46:57;101233.84;;;18.17;53.85
30463;BME280;17256;43.618;25.336;2023-05-12T10:49:34;101309.94;;;18.83;54.03
30463;BME280;17256;43.618;25.336;2023-05-12T10:52:32;101317.31;;;18.77;54.08
30463;BME280;17256;43.618;25.336;2023-05-12T10:55:02;101189.53;;;18.04;54.62
30463;BME280;17256;43.618;25.336;2023-05-12T10:57:28;101154.66;;;17.90;54.45
30463;BME280;17256;43.618;25.336;2023-05-12T10:59:58;101123.03;;;17.54;53.62
30463;BME280;17256;43.618;25.336;2023-05-12T11:02:28;101122.34;;;17.77;53.75
30463;BME280;17256;43.618;25.336;2023-05-12T11:05:02;101013.72;;;17.18;53.16
30463;BME280;17256;43.618;25.336;2023-05-12T11:07:32;101225.16;;;18.55;53.32
30463;BME280;17256;43.618;25.336;2023-05-12T11:10:00;100956.69;;;17.04;54.02
30463;BME280;17256;43.618;25.336;2023-05-12T11:23:49;101010.00;;;17.25;51.98
30463;BME280;17256;43.618;25.336;2023-05-12T11:32:59;101020.13;;;17.19;52.14
30463;BME280;17256;43.618;25.336;2023-05-12T11:35:29;101171.59;;;18.18;51.67
30463;BME280;17256;43.618;25.336;2023-05-12T11:37:55;101132.00;;;18.04;51.20
30463;BME280;17256;43.618;25.336;2023-05-12T11:40:21;101246.59;;;18.96;51.87
30463;BME280;17256;43.618;25.336;2023-05-12T11:42:49;101214.28;;;18.95;50.80
30463;BME280;17256;43.618;25.336;2023-05-12T11:51:55;101028.19;;;17.99;50.18
30463;BME280;17256;43.618;25.336;2023-05-12T11:54:28;100995.25;;;17.72;50.79
30463;BME280;17256;43.618;25.336;2023-05-12T12:05:22;101076.09;;;18.12;50.44
30463;BME280;17256;43.618;25.336;2023-05-12T12:07:48;101216.56;;;18.87;50.88
30463;BME280;17256;43.618;25.336;2023-05-12T12:10:15;101095.09;;;18.27;49.84
30463;BME280;17256;43.618;25.336;2023-05-12T12:12:41;101087.59;;;18.16;50.03
30463;BME280;17256;43.618;25.336;2023-05-12T12:15:08;101277.53;;;19.53;49.79
30463;BME280;17256;43.618;25.336;2023-05-12T12:17:37;101087.06;;;18.61;49.85
30463;BME280;17256;43.618;25.336;2023-05-12T12:20:04;101137.06;;;18.91;48.98
30463;BME280;17256;43.618;25.336;2023-05-12T12:22:33;101270.50;;;19.74;48.11
30463;BME280;17256;43.618;25.336;2023-05-12T12:25:20;101258.41;;;19.69;48.24
30463;BME280;17256;43.618;25.336;2023-05-12T12:32:26;101211.41;;;19.60;48.14
30463;BME280;17256;43.618;25.336;2023-05-12T12:34:52;101120.63;;;18.89;48.14
30463;BME280;17256;43.618;25.336;2023-05-12T12:38:11;101128.00;;;18.84;48.99
30463;BME280;17256;43.618;25.336;2023-05-12T12:41:35;101262.63;;;19.83;48.11
30463;BME280;17256;43.618;25.336;2023-05-12T12:50:09;100901.16;;;17.22;48.27
30463;BME280;17256;43.618;25.336;2023-05-12T12:54:25;100886.91;;;17.31;48.47
30463;BME280;17256;43.618;25.336;2023-05-12T12:58:05;100949.25;;;17.46;48.67
30463;BME280;17256;43.618;25.336;2023-05-12T13:00:39;101023.47;;;17.88;48.39
30463;BME280;17256;43.618;25.336;2023-05-12T13:03:33;101164.78;;;18.86;49.02
30463;BME280;17256;43.618;25.336;2023-05-12T13:06:05;100896.34;;;17.30;49.07
30463;BME280;17256;43.618;25.336;2023-05-12T13:08:41;100891.72;;;17.12;48.92
30463;BME280;17256;43.618;25.336;2023-05-12T13:11:10;100935.16;;;17.48;50.08
30463;BME280;17256;43.618;25.336;2023-05-12T13:22:05;100919.47;;;17.12;51.23
30463;BME280;17256;43.618;25.336;2023-05-12T13:24:44;101242.03;;;19.14;51.13
30463;BME280;17256;43.618;25.336;2023-05-12T13:27:12;100948.28;;;17.41;51.56
30463;BME280;17256;43.618;25.336;2023-05-12T13:29:40;100926.97;;;17.23;51.67
30463;BME280;17256;43.618;25.336;2023-05-12T13:32:09;101111.81;;;18.39;52.46
30463;BME280;17256;43.618;25.336;2023-05-12T13:34:36;100869.56;;;16.75;52.34
30463;BME280;17256;43.618;25.336;2023-05-12T13:37:02;101058.81;;;17.80;52.94
30463;BME280;17256;43.618;25.336;2023-05-12T13:39:29;101025.13;;;17.59;52.74
30463;BME280;17256;43.618;25.336;2023-05-12T13:41:56;101115.19;;;18.41;52.94
30463;BME280;17256;43.618;25.336;2023-05-12T13:44:22;101080.81;;;18.24;53.27
30463;BME280;17256;43.618;25.336;2023-05-12T13:46:51;101224.44;;;19.01;53.71
30463;BME280;17256;43.618;25.336;2023-05-12T13:49:17;100923.59;;;17.21;53.91
30463;BME280;17256;43.618;25.336;2023-05-12T13:51:54;101165.13;;;18.36;53.63
30463;BME280;17256;43.618;25.336;2023-05-12T13:58:22;101091.38;;;17.92;53.86
30463;BME280;17256;43.618;25.336;2023-05-12T14:00:51;100889.81;;;16.57;54.46
30463;BME280;17256;43.618;25.336;2023-05-12T14:03:22;100965.94;;;17.16;55.19
30463;BME280;17256;43.618;25.336;2023-05-12T14:06:02;101221.69;;;18.60;55.01
30463;BME280;17256;43.618;25.336;2023-05-12T14:08:51;101099.56;;;17.87;55.18
30463;BME280;17256;43.618;25.336;2023-05-12T14:11:56;101004.78;;;17.16;55.77
30463;BME280;17256;43.618;25.336;2023-05-12T14:14:28;101225.22;;;18.37;55.83
30463;BME280;17256;43.618;25.336;2023-05-12T14:17:26;101040.28;;;17.44;56.44
30463;BME280;17256;43.618;25.336;2023-05-12T14:20:00;101012.72;;;17.13;55.84
30463;BME280;17256;43.618;25.336;2023-05-12T14:28:20;101225.50;;;18.17;56.63
30463;BME280;17256;43.618;25.336;2023-05-12T14:31:22;101236.78;;;18.04;57.08
30463;BME280;17256;43.618;25.336;2023-05-12T14:34:41;101173.53;;;17.69;57.53
30463;BME280;17256;43.618;25.336;2023-05-12T14:37:30;100938.06;;;16.13;57.53
30463;BME280;17256;43.618;25.336;2023-05-12T14:39:57;101131.59;;;17.34;57.68
30463;BME280;17256;43.618;25.336;2023-05-12T14:42:37;101245.19;;;17.97;57.31
30463;BME280;17256;43.618;25.336;2023-05-12T14:45:20;101233.47;;;17.95;57.87
30463;BME280;17256;43.618;25.336;2023-05-12T14:48:03;100844.78;;;15.57;58.37
30463;BME280;17256;43.618;25.336;2023-05-12T14:50:33;101256.88;;;17.88;58.29
30463;BME280;17256;43.618;25.336;2023-05-12T14:52:59;100894.09;;;15.74;58.67
30463;BME280;17256;43.618;25.336;2023-05-12T14:55:39;101097.81;;;17.01;58.64
30463;BME280;17256;43.618;25.336;2023-05-12T14:58:28;100959.41;;;16.13;58.67
30463;BME280;17256;43.618;25.336;2023-05-12T15:01:05;100925.50;;;15.86;59.13
30463;BME280;17256;43.618;25.336;2023-05-12T15:06:39;100881.91;;;15.50;60.20
30463;BME280;17256;43.618;25.336;2023-05-12T15:09:06;100944.56;;;16.00;59.57
30463;BME280;17256;43.618;25.336;2023-05-12T15:11:40;101021.06;;;16.51;59.52
30463;BME280;17256;43.618;25.336;2023-05-12T15:14:22;100841.09;;;15.45;59.88
30463;BME280;17256;43.618;25.336;2023-05-12T15:16:51;101025.97;;;16.49;59.56
30463;BME280;17256;43.618;25.336;2023-05-12T15:19:23;101115.84;;;17.10;60.60
30463;BME280;17256;43.618;25.336;2023-05-12T15:21:55;101076.03;;;16.79;60.10
30463;BME280;17256;43.618;25.336;2023-05-12T15:24:41;101204.19;;;17.56;60.59
30463;BME280;17256;43.618;25.336;2023-05-12T15:27:32;100834.78;;;15.31;60.13
30463;BME280;17256;43.618;25.336;2023-05-12T15:30:34;100835.63;;;15.32;60.82
30463;BME280;17256;43.618;25.336;2023-05-12T15:33:03;100832.38;;;15.10;60.63
30463;BME280;17256;43.618;25.336;2023-05-12T15:35:39;101192.47;;;17.36;60.65
30463;BME280;17256;43.618;25.336;2023-05-12T15:38:53;100883.22;;;15.47;60.88
30463;BME280;17256;43.618;25.336;2023-05-12T15:41:34;100932.19;;;15.78;60.81
30463;BME280;17256;43.618;25.336;2023-05-12T15:44:27;101061.91;;;16.63;61.14
30463;BME280;17256;43.618;25.336;2023-05-12T15:47:10;101136.16;;;17.10;61.13
30463;BME280;17256;43.618;25.336;2023-05-12T15:49:52;100816.69;;;15.04;59.75
30463;BME280;17256;43.618;25.336;2023-05-12T15:52:33;101102.09;;;16.78;60.23
30463;BME280;17256;43.618;25.336;2023-05-12T15:55:31;101183.72;;;17.32;60.46
30463;BME280;17256;43.618;25.336;2023-05-12T15:58:30;100823.88;;;15.12;60.19
30463;BME280;17256;43.618;25.336;2023-05-12T16:00:57;101005.97;;;16.22;61.15
30463;BME280;17256;43.618;25.336;2023-05-12T16:03:27;101114.88;;;16.79;61.08
30463;BME280;17256;43.618;25.336;2023-05-12T16:05:55;101012.66;;;16.15;61.24
30463;BME280;17256;43.618;25.336;2023-05-12T16:08:25;101194.44;;;17.29;61.06
30463;BME280;17256;43.618;25.336;2023-05-12T16:10:51;100801.91;;;14.85;60.70
30463;BME280;17256;43.618;25.336;2023-05-12T16:13:32;100956.19;;;15.84;60.66
30463;BME280;17256;43.618;25.336;2023-05-12T16:15:58;100984.81;;;15.78;60.52
30463;BME280;17256;43.618;25.336;2023-05-12T16:18:24;101021.28;;;16.00;60.55
30463;BME280;17256;43.618;25.336;2023-05-12T16:21:24;101203.75;;;17.16;61.26
30463;BME280;17256;43.618;25.336;2023-05-12T16:24:15;101195.94;;;17.06;61.10
30463;BME280;17256;43.618;25.336;2023-05-12T16:28:12;100895.66;;;15.31;61.73
30463;BME280;17256;43.618;25.336;2023-05-12T16:30:59;100952.56;;;15.59;61.67
30463;BME280;17256;43.618;25.336;2023-05-12T16:33:42;101073.78;;;16.20;61.63
30463;BME280;17256;43.618;25.336;2023-05-12T16:36:19;101043.16;;;16.08;61.27
30463;BME280;17256;43.618;25.336;2023-05-12T16:38:55;101015.44;;;15.83;61.21
30463;BME280;17256;43.618;25.336;2023-05-12T16:45:16;101189.09;;;16.84;61.08
30463;BME280;17256;43.618;25.336;2023-05-12T16:47:55;101202.56;;;16.80;61.52
30463;BME280;17256;43.618;25.336;2023-05-12T16:50:26;100820.19;;;14.55;60.88
30463;BME280;17256;43.618;25.336;2023-05-12T16:58:32;101182.13;;;16.75;61.44
30463;BME280;17256;43.618;25.336;2023-05-12T17:00:58;101160.75;;;16.50;61.61
30463;BME280;17256;43.618;25.336;2023-05-12T17:03:28;101000.88;;;15.56;61.35
30463;BME280;17256;43.618;25.336;2023-05-12T17:05:56;101014.78;;;15.50;62.03
30463;BME280;17256;43.618;25.336;2023-05-12T17:08:30;101140.91;;;16.22;62.17
30463;BME280;17256;43.618;25.336;2023-05-12T17:11:26;101130.53;;;16.11;62.22
30463;BME280;17256;43.618;25.336;2023-05-12T17:14:07;101206.97;;;16.56;62.59
30463;BME280;17256;43.618;25.336;2023-05-12T17:17:10;101100.00;;;15.86;62.57
30463;BME280;17256;43.618;25.336;2023-05-12T17:20:14;101102.03;;;16.04;62.78
30463;BME280;17256;43.618;25.336;2023-05-12T17:23:21;101015.03;;;15.42;62.94
30463;BME280;17256;43.618;25.336;2023-05-12T17:29:10;100839.41;;;14.23;63.10
30463;BME280;17256;43.618;25.336;2023-05-12T17:31:37;101025.50;;;15.39;63.33
30463;BME280;17256;43.618;25.336;2023-05-12T17:34:04;101071.16;;;15.68;63.50
30463;BME280;17256;43.618;25.336;2023-05-12T17:36:30;100965.28;;;14.90;63.43
30463;BME280;17256;43.618;25.336;2023-05-12T17:38:58;100812.97;;;13.89;63.96
30463;BME280;17256;43.618;25.336;2023-05-12T17:41:25;101226.94;;;16.40;64.37
30463;BME280;17256;43.618;25.336;2023-05-12T17:43:51;100990.94;;;15.04;65.55
30463;BME280;17256;43.618;25.336;2023-05-12T17:46:18;101175.13;;;16.03;67.08
30463;BME280;17256;43.618;25.336;2023-05-12T17:48:48;100906.94;;;14.40;67.45
30463;BME280;17256;43.618;25.336;2023-05-12T17:51:14;100969.34;;;14.88;68.38
30463;BME280;17256;43.618;25.336;2023-05-12T17:53:54;101133.09;;;15.74;68.25
30463;BME280;17256;43.618;25.336;2023-05-12T18:37:48;100898.34;;;13.71;66.67
30463;BME280;17256;43.618;25.336;2023-05-12T18:40:31;101014.91;;;14.32;66.79